sensor_id;sensor_type;location;lat;lon;timestamp;P1;durP1;ratioP1;P2;durP2;ratioP2
47772;SDS011;33534;51.028;13.716;2024-01-15T00:01:20;29.65;;;20.15;;
47772;SDS011;33534;51.028;13.716;2024-01-15T00:03:46;28.58;;;19.80;;
47772;SDS011;33534;51.028;13.716;2024-01-15T00:06:12;24.35;;;18.27;;
47772;SDS011;33534;51.028;13.716;2024-01-15T00:08:37;28.17;;;19.23;;
47772;SDS011;33534;51.028;13.716;2024-01-15T00:11:04;26.35;;;18.52;;
47772;SDS011;33534;51.028;13.716;2024-01-15T00:13:29;27.80;;;19.85;;
47772;SDS011;33534;51.028;13.716;2024-01-15T00:15:55;23.15;;;17.88;;
47772;SDS011;33534;51.028;13.716;2024-01-15T00:18:21;28.65;;;18.02;;
47772;SDS011;33534;51.028;13.716;2024-01-15T00:20:46;23.55;;;18.17;;
47772;SDS011;33534;51.028;13.716;2024-01-15T00:23:12;24.13;;;17.45;;
47772;SDS011;33534;51.028;13.716;2024-01-15T00:25:38;23.25;;;18.13;;
47772;SDS011;33534;51.028;13.716;2024-01-15T00:28:03;28.55;;;18.10;;
47772;SDS011;33534;51.028;13.716;2024-01-15T00:30:29;25.65;;;18.63;;
47772;SDS011;33534;51.028;13.716;2024-01-15T00:32:55;24.75;;;17.73;;
47772;SDS011;33534;51.028;13.716;2024-01-15T00:35:20;23.85;;;16.58;;
47772;SDS011;33534;51.028;13.716;2024-01-15T00:37:46;21.88;;;17.23;;
47772;SDS011;33534;51.028;13.716;2024-01-15T00:40:12;24.50;;;17.40;;
47772;SDS011;33534;51.028;13.716;2024-01-15T00:42:37;21.33;;;16.73;;
47772;SDS011;33534;51.028;13.716;2024-01-15T00:45:03;22.25;;;16.23;;
47772;SDS011;33534;51.028;13.716;2024-01-15T00:47:30;23.40;;;16.33;;
47772;SDS011;33534;51.028;13.716;2024-01-15T00:49:56;23.17;;;16.65;;
47772;SDS011;33534;51.028;13.716;2024-01-15T00:52:21;21.75;;;14.88;;
47772;SDS011;33534;51.028;13.716;2024-01-15T00:54:47;23.88;;;16.23;;
47772;SDS011;33534;51.028;13.716;2024-01-15T00:57:12;20.13;;;15.20;;
47772;SDS011;33534;51.028;13.716;2024-01-15T00:59:38;19.50;;;14.55;;
47772;SDS011;33534;51.028;13.716;2024-01-15T01:02:04;20.42;;;15.00;;
47772;SDS011;33534;51.028;13.716;2024-01-15T01:04:29;19.33;;;14.07;;
47772;SDS011;33534;51.028;13.716;2024-01-15T01:06:55;19.05;;;14.52;;
47772;SDS011;33534;51.028;13.716;2024-01-15T01:09:21;19.30;;;14.05;;
47772;SDS011;33534;51.028;13.716;2024-01-15T01:11:47;18.50;;;13.75;;
47772;SDS011;33534;51.028;13.716;2024-01-15T01:14:12;16.90;;;12.93;;
47772;SDS011;33534;51.028;13.716;2024-01-15T01:16:38;18.05;;;12.75;;
47772;SDS011;33534;51.028;13.716;2024-01-15T01:19:04;16.98;;;12.75;;
47772;SDS011;33534;51.028;13.716;2024-01-15T01:21:32;20.33;;;13.98;;
47772;SDS011;33534;51.028;13.716;2024-01-15T01:23:58;20.15;;;13.90;;
47772;SDS011;33534;51.028;13.716;2024-01-15T01:26:24;16.00;;;12.68;;
47772;SDS011;33534;51.028;13.716;2024-01-15T01:28:49;18.23;;;13.35;;
47772;SDS011;33534;51.028;13.716;2024-01-15T01:31:15;17.08;;;12.25;;
47772;SDS011;33534;51.028;13.716;2024-01-15T01:33:41;15.98;;;12.15;;
47772;SDS011;33534;51.028;13.716;2024-01-15T01:36:10;15.60;;;11.32;;
47772;SDS011;33534;51.028;13.716;2024-01-15T01:38:36;17.95;;;12.10;;
47772;SDS011;33534;51.028;13.716;2024-01-15T01:41:02;26.98;;;15.25;;
47772;SDS011;33534;51.028;13.716;2024-01-15T01:43:28;24.95;;;14.20;;
47772;SDS011;33534;51.028;13.716;2024-01-15T01:45:54;20.33;;;13.75;;
47772;SDS011;33534;51.028;13.716;2024-01-15T01:48:21;18.35;;;12.00;;
47772;SDS011;33534;51.028;13.716;2024-01-15T01:50:50;20.23;;;13.70;;
47772;SDS011;33534;51.028;13.716;2024-01-15T01:53:15;17.42;;;13.25;;
47772;SDS011;33534;51.028;13.716;2024-01-15T01:55:41;21.15;;;14.05;;
47772;SDS011;33534;51.028;13.716;2024-01-15T01:58:07;20.23;;;13.07;;
47772;SDS011;33534;51.028;13.716;2024-01-15T02:00:33;17.55;;;13.57;;
47772;SDS011;33534;51.028;13.716;2024-01-15T02:03:00;19.23;;;12.90;;
47772;SDS011;33534;51.028;13.716;2024-01-15T02:05:28;17.85;;;12.57;;
47772;SDS011;33534;51.028;13.716;2024-01-15T02:07:55;15.02;;;12.18;;
47772;SDS011;33534;51.028;13.716;2024-01-15T02:10:21;19.23;;;13.20;;
47772;SDS011;33534;51.028;13.716;2024-01-15T02:12:46;17.98;;;12.15;;
47772;SDS011;33534;51.028;13.716;2024-01-15T02:15:13;15.52;;;12.25;;
47772;SDS011;33534;51.028;13.716;2024-01-15T02:17:58;17.88;;;11.85;;
47772;SDS011;33534;51.028;13.716;2024-01-15T02:20:25;17.80;;;12.48;;
47772;SDS011;33534;51.028;13.716;2024-01-15T02:22:51;17.02;;;12.23;;
47772;SDS011;33534;51.028;13.716;2024-01-15T02:25:17;18.25;;;11.55;;
47772;SDS011;33534;51.028;13.716;2024-01-15T02:27:43;19.63;;;12.30;;
47772;SDS011;33534;51.028;13.716;2024-01-15T02:30:09;18.17;;;11.55;;
47772;SDS011;33534;51.028;13.716;2024-01-15T02:32:36;15.13;;;10.85;;
47772;SDS011;33534;51.028;13.716;2024-01-15T02:35:02;16.67;;;11.40;;
47772;SDS011;33534;51.028;13.716;2024-01-15T02:37:28;15.93;;;11.50;;
47772;SDS011;33534;51.028;13.716;2024-01-15T02:39:54;16.52;;;9.95;;
47772;SDS011;33534;51.028;13.716;2024-01-15T02:42:19;14.40;;;10.77;;
47772;SDS011;33534;51.028;13.716;2024-01-15T02:44:45;15.07;;;10.77;;
47772;SDS011;33534;51.028;13.716;2024-01-15T02:47:11;13.43;;;10.20;;
47772;SDS011;33534;51.028;13.716;2024-01-15T02:49:36;15.98;;;11.07;;
47772;SDS011;33534;51.028;13.716;2024-01-15T02:52:02;14.40;;;10.43;;
47772;SDS011;33534;51.028;13.716;2024-01-15T02:54:28;13.10;;;10.20;;
47772;SDS011;33534;51.028;13.716;2024-01-15T02:56:54;12.50;;;9.88;;
47772;SDS011;33534;51.028;13.716;2024-01-15T02:59:19;12.23;;;9.23;;
47772;SDS011;33534;51.028;13.716;2024-01-15T03:01:45;11.23;;;9.30;;
47772;SDS011;33534;51.028;13.716;2024-01-15T03:04:11;13.70;;;9.70;;
47772;SDS011;33534;51.028;13.716;2024-01-15T03:06:36;14.82;;;9.25;;
47772;SDS011;33534;51.028;13.716;2024-01-15T03:09:02;13.50;;;9.52;;
47772;SDS011;33534;51.028;13.716;2024-01-15T03:11:28;14.75;;;8.88;;
47772;SDS011;33534;51.028;13.716;2024-01-15T03:13:54;13.52;;;9.40;;
47772;SDS011;33534;51.028;13.716;2024-01-15T03:16:20;12.15;;;8.77;;
47772;SDS011;33534;51.028;13.716;2024-01-15T03:18:45;10.50;;;8.10;;
47772;SDS011;33534;51.028;13.716;2024-01-15T03:21:11;11.98;;;9.30;;
47772;SDS011;33534;51.028;13.716;2024-01-15T03:23:37;11.15;;;8.80;;
47772;SDS011;33534;51.028;13.716;2024-01-15T03:26:03;10.73;;;8.25;;
47772;SDS011;33534;51.028;13.716;2024-01-15T03:28:28;11.40;;;8.48;;
47772;SDS011;33534;51.028;13.716;2024-01-15T03:30:55;10.20;;;8.27;;
47772;SDS011;33534;51.028;13.716;2024-01-15T03:33:21;10.23;;;7.60;;
47772;SDS011;33534;51.028;13.716;2024-01-15T03:35:46;10.20;;;7.80;;
47772;SDS011;33534;51.028;13.716;2024-01-15T03:38:12;11.57;;;8.82;;
47772;SDS011;33534;51.028;13.716;2024-01-15T03:40:38;13.68;;;8.18;;
47772;SDS011;33534;51.028;13.716;2024-01-15T03:43:03;10.15;;;7.32;;
47772;SDS011;33534;51.028;13.716;2024-01-15T03:45:29;16.65;;;7.70;;
47772;SDS011;33534;51.028;13.716;2024-01-15T03:47:54;7.93;;;6.75;;
47772;SDS011;33534;51.028;13.716;2024-01-15T03:50:20;8.65;;;6.60;;
47772;SDS011;33534;51.028;13.716;2024-01-15T03:52:58;16.65;;;6.95;;
47772;SDS011;33534;51.028;13.716;2024-01-15T03:55:23;9.30;;;7.07;;
47772;SDS011;33534;51.028;13.716;2024-01-15T03:57:49;9.65;;;6.40;;
47772;SDS011;33534;51.028;13.716;2024-01-15T04:00:15;8.25;;;6.22;;
47772;SDS011;33534;51.028;13.716;2024-01-15T04:02:42;8.85;;;6.47;;
47772;SDS011;33534;51.028;13.716;2024-01-15T04:05:09;9.05;;;6.78;;
47772;SDS011;33534;51.028;13.716;2024-01-15T04:07:34;9.20;;;6.20;;
47772;SDS011;33534;51.028;13.716;2024-01-15T04:10:00;8.30;;;5.55;;
47772;SDS011;33534;51.028;13.716;2024-01-15T04:12:26;8.18;;;6.40;;
47772;SDS011;33534;51.028;13.716;2024-01-15T04:14:51;6.35;;;5.18;;
47772;SDS011;33534;51.028;13.716;2024-01-15T04:17:17;7.50;;;5.88;;
47772;SDS011;33534;51.028;13.716;2024-01-15T04:19:46;7.10;;;5.40;;
47772;SDS011;33534;51.028;13.716;2024-01-15T04:22:13;9.32;;;5.10;;
47772;SDS011;33534;51.028;13.716;2024-01-15T04:24:38;6.32;;;5.13;;
47772;SDS011;33534;51.028;13.716;2024-01-15T04:27:04;10.13;;;5.50;;
47772;SDS011;33534;51.028;13.716;2024-01-15T04:29:30;11.13;;;5.13;;
47772;SDS011;33534;51.028;13.716;2024-01-15T04:31:56;9.35;;;5.68;;
47772;SDS011;33534;51.028;13.716;2024-01-15T04:34:21;8.57;;;5.47;;
47772;SDS011;33534;51.028;13.716;2024-01-15T04:36:47;15.65;;;5.40;;
47772;SDS011;33534;51.028;13.716;2024-01-15T04:39:13;7.60;;;4.97;;
47772;SDS011;33534;51.028;13.716;2024-01-15T04:41:38;10.60;;;4.88;;
47772;SDS011;33534;51.028;13.716;2024-01-15T04:44:04;4.50;;;3.88;;
47772;SDS011;33534;51.028;13.716;2024-01-15T04:46:30;7.50;;;5.30;;
47772;SDS011;33534;51.028;13.716;2024-01-15T04:48:55;8.07;;;4.70;;
47772;SDS011;33534;51.028;13.716;2024-01-15T04:51:21;6.28;;;4.25;;
47772;SDS011;33534;51.028;13.716;2024-01-15T04:53:47;10.70;;;4.95;;
47772;SDS011;33534;51.028;13.716;2024-01-15T04:56:12;7.70;;;4.65;;
47772;SDS011;33534;51.028;13.716;2024-01-15T04:58:38;6.30;;;4.63;;
47772;SDS011;33534;51.028;13.716;2024-01-15T05:01:03;8.35;;;4.65;;
47772;SDS011;33534;51.028;13.716;2024-01-15T05:03:29;4.30;;;3.72;;
47772;SDS011;33534;51.028;13.716;2024-01-15T05:05:55;5.50;;;3.92;;
47772;SDS011;33534;51.028;13.716;2024-01-15T05:08:21;5.88;;;4.18;;
47772;SDS011;33534;51.028;13.716;2024-01-15T05:10:47;5.40;;;4.00;;
47772;SDS011;33534;51.028;13.716;2024-01-15T05:13:13;5.95;;;4.05;;
47772;SDS011;33534;51.028;13.716;2024-01-15T05:15:38;5.88;;;4.28;;
47772;SDS011;33534;51.028;13.716;2024-01-15T05:18:04;5.88;;;4.25;;
47772;SDS011;33534;51.028;13.716;2024-01-15T05:20:30;4.65;;;4.00;;
47772;SDS011;33534;51.028;13.716;2024-01-15T05:22:56;5.95;;;3.63;;
47772;SDS011;33534;51.028;13.716;2024-01-15T05:25:21;5.53;;;3.97;;
47772;SDS011;33534;51.028;13.716;2024-01-15T05:27:48;4.60;;;3.60;;
47772;SDS011;33534;51.028;13.716;2024-01-15T05:30:13;5.28;;;4.15;;
47772;SDS011;33534;51.028;13.716;2024-01-15T05:32:39;5.63;;;4.03;;
47772;SDS011;33534;51.028;13.716;2024-01-15T05:35:05;5.38;;;3.67;;
47772;SDS011;33534;51.028;13.716;2024-01-15T05:37:31;19.13;;;3.80;;
47772;SDS011;33534;51.028;13.716;2024-01-15T05:39:57;4.35;;;3.42;;
47772;SDS011;33534;51.028;13.716;2024-01-15T05:42:22;4.68;;;3.45;;
47772;SDS011;33534;51.028;13.716;2024-01-15T05:44:48;5.28;;;3.40;;
47772;SDS011;33534;51.028;13.716;2024-01-15T05:47:14;5.40;;;3.58;;
47772;SDS011;33534;51.028;13.716;2024-01-15T05:49:39;4.97;;;3.67;;
47772;SDS011;33534;51.028;13.716;2024-01-15T05:52:05;5.93;;;3.00;;
47772;SDS011;33534;51.028;13.716;2024-01-15T05:54:31;4.38;;;3.53;;
47772;SDS011;33534;51.028;13.716;2024-01-15T05:56:57;4.13;;;3.40;;
47772;SDS011;33534;51.028;13.716;2024-01-15T05:59:22;3.30;;;3.00;;
47772;SDS011;33534;51.028;13.716;2024-01-15T06:01:48;6.10;;;3.15;;
47772;SDS011;33534;51.028;13.716;2024-01-15T06:04:14;3.10;;;2.80;;
47772;SDS011;33534;51.028;13.716;2024-01-15T06:06:39;3.70;;;3.20;;
47772;SDS011;33534;51.028;13.716;2024-01-15T06:09:05;6.57;;;3.13;;
47772;SDS011;33534;51.028;13.716;2024-01-15T06:11:34;3.50;;;2.75;;
47772;SDS011;33534;51.028;13.716;2024-01-15T06:13:59;7.88;;;3.50;;
47772;SDS011;33534;51.028;13.716;2024-01-15T06:16:25;4.90;;;3.60;;
47772;SDS011;33534;51.028;13.716;2024-01-15T06:18:51;4.47;;;3.20;;
47772;SDS011;33534;51.028;13.716;2024-01-15T06:21:17;3.55;;;3.08;;
47772;SDS011;33534;51.028;13.716;2024-01-15T06:23:42;7.32;;;3.00;;
47772;SDS011;33534;51.028;13.716;2024-01-15T06:26:08;8.02;;;3.15;;
47772;SDS011;33534;51.028;13.716;2024-01-15T06:28:36;9.68;;;3.78;;
47772;SDS011;33534;51.028;13.716;2024-01-15T06:31:01;8.90;;;3.67;;
47772;SDS011;33534;51.028;13.716;2024-01-15T06:33:27;10.93;;;5.32;;
47772;SDS011;33534;51.028;13.716;2024-01-15T06:35:53;18.40;;;4.35;;
47772;SDS011;33534;51.028;13.716;2024-01-15T06:38:21;19.85;;;5.00;;
47772;SDS011;33534;51.028;13.716;2024-01-15T06:40:48;14.18;;;4.60;;
47772;SDS011;33534;51.028;13.716;2024-01-15T06:43:14;10.15;;;4.15;;
47772;SDS011;33534;51.028;13.716;2024-01-15T06:45:40;9.05;;;4.55;;
47772;SDS011;33534;51.028;13.716;2024-01-15T06:48:06;13.98;;;4.65;;
47772;SDS011;33534;51.028;13.716;2024-01-15T06:50:35;22.83;;;4.75;;
47772;SDS011;33534;51.028;13.716;2024-01-15T06:53:00;9.73;;;3.78;;
47772;SDS011;33534;51.028;13.716;2024-01-15T06:55:26;10.82;;;4.28;;
47772;SDS011;33534;51.028;13.716;2024-01-15T06:57:52;18.17;;;4.80;;
47772;SDS011;33534;51.028;13.716;2024-01-15T07:00:18;13.75;;;3.80;;
47772;SDS011;33534;51.028;13.716;2024-01-15T07:02:44;9.35;;;4.05;;
47772;SDS011;33534;51.028;13.716;2024-01-15T07:05:10;18.42;;;3.90;;
47772;SDS011;33534;51.028;13.716;2024-01-15T07:07:36;9.75;;;4.03;;
47772;SDS011;33534;51.028;13.716;2024-01-15T07:10:08;10.02;;;4.82;;
47772;SDS011;33534;51.028;13.716;2024-01-15T07:12:37;16.92;;;4.00;;
47772;SDS011;33534;51.028;13.716;2024-01-15T07:15:09;11.25;;;4.30;;
47772;SDS011;33534;51.028;13.716;2024-01-15T07:17:34;12.07;;;3.38;;
47772;SDS011;33534;51.028;13.716;2024-01-15T07:20:01;6.00;;;3.45;;
47772;SDS011;33534;51.028;13.716;2024-01-15T07:22:27;10.35;;;3.70;;
47772;SDS011;33534;51.028;13.716;2024-01-15T07:24:52;6.63;;;3.10;;
47772;SDS011;33534;51.028;13.716;2024-01-15T07:27:18;4.25;;;2.75;;
47772;SDS011;33534;51.028;13.716;2024-01-15T07:29:44;7.35;;;3.08;;
47772;SDS011;33534;51.028;13.716;2024-01-15T07:32:10;7.03;;;3.03;;
47772;SDS011;33534;51.028;13.716;2024-01-15T07:34:36;5.40;;;2.95;;
47772;SDS011;33534;51.028;13.716;2024-01-15T07:37:02;8.30;;;2.50;;
47772;SDS011;33534;51.028;13.716;2024-01-15T07:39:28;4.63;;;2.00;;
47772;SDS011;33534;51.028;13.716;2024-01-15T07:41:55;4.68;;;2.67;;
47772;SDS011;33534;51.028;13.716;2024-01-15T07:44:21;4.07;;;2.35;;
47772;SDS011;33534;51.028;13.716;2024-01-15T07:46:47;6.82;;;2.72;;
47772;SDS011;33534;51.028;13.716;2024-01-15T07:49:12;4.93;;;2.33;;
47772;SDS011;33534;51.028;13.716;2024-01-15T07:51:38;3.53;;;2.38;;
47772;SDS011;33534;51.028;13.716;2024-01-15T07:54:05;4.43;;;2.20;;
47772;SDS011;33534;51.028;13.716;2024-01-15T07:56:52;4.60;;;1.90;;
47772;SDS011;33534;51.028;13.716;2024-01-15T07:59:22;4.93;;;2.15;;
47772;SDS011;33534;51.028;13.716;2024-01-15T08:01:48;5.55;;;2.50;;
47772;SDS011;33534;51.028;13.716;2024-01-15T08:04:17;6.60;;;1.70;;
47772;SDS011;33534;51.028;13.716;2024-01-15T08:06:43;3.95;;;2.13;;
47772;SDS011;33534;51.028;13.716;2024-01-15T08:09:08;3.53;;;1.80;;
47772;SDS011;33534;51.028;13.716;2024-01-15T08:11:39;2.30;;;1.60;;
47772;SDS011;33534;51.028;13.716;2024-01-15T08:14:06;3.97;;;1.98;;
47772;SDS011;33534;51.028;13.716;2024-01-15T08:16:32;4.45;;;2.03;;
47772;SDS011;33534;51.028;13.716;2024-01-15T08:18:58;4.35;;;1.90;;
47772;SDS011;33534;51.028;13.716;2024-01-15T08:21:24;5.43;;;1.40;;
47772;SDS011;33534;51.028;13.716;2024-01-15T08:23:49;7.75;;;1.70;;
47772;SDS011;33534;51.028;13.716;2024-01-15T08:26:15;1.42;;;1.33;;
47772;SDS011;33534;51.028;13.716;2024-01-15T08:28:41;3.15;;;1.40;;
47772;SDS011;33534;51.028;13.716;2024-01-15T08:31:06;1.73;;;1.02;;
47772;SDS011;33534;51.028;13.716;2024-01-15T08:33:32;4.63;;;1.50;;
47772;SDS011;33534;51.028;13.716;2024-01-15T08:35:58;4.65;;;1.60;;
47772;SDS011;33534;51.028;13.716;2024-01-15T08:38:23;3.08;;;1.35;;
47772;SDS011;33534;51.028;13.716;2024-01-15T08:40:50;2.10;;;1.30;;
47772;SDS011;33534;51.028;13.716;2024-01-15T08:43:18;2.97;;;1.52;;
47772;SDS011;33534;51.028;13.716;2024-01-15T08:45:44;1.35;;;1.20;;
47772;SDS011;33534;51.028;13.716;2024-01-15T08:48:10;4.25;;;1.55;;
47772;SDS011;33534;51.028;13.716;2024-01-15T08:50:35;2.78;;;1.30;;
47772;SDS011;33534;51.028;13.716;2024-01-15T08:53:01;1.23;;;0.95;;
47772;SDS011;33534;51.028;13.716;2024-01-15T08:55:27;2.85;;;1.23;;
47772;SDS011;33534;51.028;13.716;2024-01-15T08:57:52;2.78;;;1.20;;
47772;SDS011;33534;51.028;13.716;2024-01-15T09:00:18;3.50;;;1.30;;
47772;SDS011;33534;51.028;13.716;2024-01-15T09:02:44;2.10;;;1.05;;
47772;SDS011;33534;51.028;13.716;2024-01-15T09:05:10;1.48;;;1.05;;
47772;SDS011;33534;51.028;13.716;2024-01-15T09:07:35;1.50;;;1.02;;
47772;SDS011;33534;51.028;13.716;2024-01-15T09:10:01;1.63;;;0.98;;
47772;SDS011;33534;51.028;13.716;2024-01-15T09:12:27;1.67;;;0.88;;
47772;SDS011;33534;51.028;13.716;2024-01-15T09:14:53;2.10;;;1.00;;
47772;SDS011;33534;51.028;13.716;2024-01-15T09:17:22;2.58;;;0.90;;
47772;SDS011;33534;51.028;13.716;2024-01-15T09:19:50;2.15;;;0.75;;
47772;SDS011;33534;51.028;13.716;2024-01-15T09:22:16;2.22;;;1.05;;
47772;SDS011;33534;51.028;13.716;2024-01-15T09:24:45;1.20;;;0.80;;
47772;SDS011;33534;51.028;13.716;2024-01-15T09:27:11;2.25;;;0.88;;
47772;SDS011;33534;51.028;13.716;2024-01-15T09:29:36;2.13;;;0.93;;
47772;SDS011;33534;51.028;13.716;2024-01-15T09:32:05;1.00;;;0.60;;
47772;SDS011;33534;51.028;13.716;2024-01-15T09:34:32;2.15;;;0.80;;
47772;SDS011;33534;51.028;13.716;2024-01-15T09:36:58;0.88;;;0.52;;
47772;SDS011;33534;51.028;13.716;2024-01-15T09:39:25;1.88;;;0.82;;
47772;SDS011;33534;51.028;13.716;2024-01-15T09:41:51;0.50;;;0.40;;
47772;SDS011;33534;51.028;13.716;2024-01-15T09:44:17;3.05;;;0.80;;
47772;SDS011;33534;51.028;13.716;2024-01-15T09:46:46;1.83;;;1.10;;
47772;SDS011;33534;51.028;13.716;2024-01-15T09:49:15;0.90;;;0.77;;
47772;SDS011;33534;51.028;13.716;2024-01-15T09:51:44;1.17;;;0.50;;
47772;SDS011;33534;51.028;13.716;2024-01-15T09:54:10;0.40;;;0.35;;
47772;SDS011;33534;51.028;13.716;2024-01-15T09:56:38;1.52;;;0.70;;
47772;SDS011;33534;51.028;13.716;2024-01-15T09:59:04;0.52;;;0.50;;
47772;SDS011;33534;51.028;13.716;2024-01-15T10:01:31;1.17;;;0.65;;
47772;SDS011;33534;51.028;13.716;2024-01-15T10:03:57;1.20;;;0.85;;
47772;SDS011;33534;51.028;13.716;2024-01-15T10:06:27;0.80;;;0.50;;
47772;SDS011;33534;51.028;13.716;2024-01-15T10:08:53;0.98;;;0.88;;
47772;SDS011;33534;51.028;13.716;2024-01-15T10:11:21;0.98;;;0.65;;
47772;SDS011;33534;51.028;13.716;2024-01-15T10:13:47;0.43;;;0.43;;
47772;SDS011;33534;51.028;13.716;2024-01-15T10:16:16;0.65;;;0.30;;
47772;SDS011;33534;51.028;13.716;2024-01-15T10:18:41;1.30;;;0.70;;
47772;SDS011;33534;51.028;13.716;2024-01-15T10:21:07;0.80;;;0.55;;
47772;SDS011;33534;51.028;13.716;2024-01-15T10:23:33;1.10;;;0.63;;
47772;SDS011;33534;51.028;13.716;2024-01-15T10:25:59;0.57;;;0.52;;
47772;SDS011;33534;51.028;13.716;2024-01-15T10:28:29;0.40;;;0.30;;
47772;SDS011;33534;51.028;13.716;2024-01-15T10:30:56;2.97;;;1.45;;
47772;SDS011;33534;51.028;13.716;2024-01-15T10:33:24;3.13;;;1.73;;
47772;SDS011;33534;51.028;13.716;2024-01-15T10:35:53;1.58;;;1.35;;
47772;SDS011;33534;51.028;13.716;2024-01-15T10:38:23;3.05;;;1.52;;
47772;SDS011;33534;51.028;13.716;2024-01-15T10:40:52;4.07;;;1.50;;
47772;SDS011;33534;51.028;13.716;2024-01-15T10:43:19;1.77;;;1.08;;
47772;SDS011;33534;51.028;13.716;2024-01-15T10:45:46;6.68;;;1.73;;
47772;SDS011;33534;51.028;13.716;2024-01-15T10:48:12;7.57;;;2.20;;
47772;SDS011;33534;51.028;13.716;2024-01-15T10:50:38;7.53;;;2.05;;
47772;SDS011;33534;51.028;13.716;2024-01-15T10:53:04;4.32;;;1.50;;
47772;SDS011;33534;51.028;13.716;2024-01-15T10:55:31;5.28;;;1.65;;
47772;SDS011;33534;51.028;13.716;2024-01-15T10:57:58;2.35;;;1.50;;
47772;SDS011;33534;51.028;13.716;2024-01-15T11:00:25;4.38;;;1.90;;
47772;SDS011;33534;51.028;13.716;2024-01-15T11:02:51;9.38;;;1.58;;
47772;SDS011;33534;51.028;13.716;2024-01-15T11:05:20;3.70;;;1.30;;
47772;SDS011;33534;51.028;13.716;2024-01-15T11:07:47;6.82;;;1.48;;
47772;SDS011;33534;51.028;13.716;2024-01-15T11:13:15;5.33;;;1.43;;
47772;SDS011;33534;51.028;13.716;2024-01-15T11:15:54;6.32;;;1.45;;
47772;SDS011;33534;51.028;13.716;2024-01-15T11:18:20;5.95;;;1.10;;
47772;SDS011;33534;51.028;13.716;2024-01-15T11:23:41;7.85;;;1.95;;
47772;SDS011;33534;51.028;13.716;2024-01-15T11:34:20;2.33;;;1.25;;
47772;SDS011;33534;51.028;13.716;2024-01-15T11:41:49;5.82;;;2.05;;
47772;SDS011;33534;51.028;13.716;2024-01-15T11:44:15;4.25;;;1.48;;
47772;SDS011;33534;51.028;13.716;2024-01-15T11:46:41;5.78;;;1.35;;
47772;SDS011;33534;51.028;13.716;2024-01-15T11:52:21;5.03;;;1.55;;
47772;SDS011;33534;51.028;13.716;2024-01-15T11:57:50;3.50;;;1.17;;
47772;SDS011;33534;51.028;13.716;2024-01-15T12:00:18;7.90;;;1.80;;
47772;SDS011;33534;51.028;13.716;2024-01-15T12:02:45;7.22;;;1.92;;
47772;SDS011;33534;51.028;13.716;2024-01-15T12:05:12;8.45;;;1.75;;
47772;SDS011;33534;51.028;13.716;2024-01-15T12:07:39;10.30;;;2.85;;
47772;SDS011;33534;51.028;13.716;2024-01-15T12:10:09;9.55;;;2.55;;
47772;SDS011;33534;51.028;13.716;2024-01-15T12:17:56;36.72;;;3.58;;
47772;SDS011;33534;51.028;13.716;2024-01-15T12:20:27;16.88;;;2.38;;
47772;SDS011;33534;51.028;13.716;2024-01-15T12:22:53;8.60;;;1.77;;
47772;SDS011;33534;51.028;13.716;2024-01-15T12:25:22;8.43;;;2.10;;
47772;SDS011;33534;51.028;13.716;2024-01-15T12:27:48;6.25;;;1.70;;
47772;SDS011;33534;51.028;13.716;2024-01-15T12:30:14;7.40;;;1.58;;
47772;SDS011;33534;51.028;13.716;2024-01-15T12:32:41;18.95;;;2.83;;
47772;SDS011;33534;51.028;13.716;2024-01-15T12:35:07;5.68;;;1.70;;
47772;SDS011;33534;51.028;13.716;2024-01-15T12:37:35;15.20;;;1.98;;
47772;SDS011;33534;51.028;13.716;2024-01-15T12:40:02;8.48;;;2.00;;
47772;SDS011;33534;51.028;13.716;2024-01-15T12:42:29;8.65;;;1.75;;
47772;SDS011;33534;51.028;13.716;2024-01-15T12:44:56;13.07;;;1.85;;
47772;SDS011;33534;51.028;13.716;2024-01-15T12:47:22;13.98;;;1.60;;
47772;SDS011;33534;51.028;13.716;2024-01-15T12:49:47;38.05;;;3.15;;
47772;SDS011;33534;51.028;13.716;2024-01-15T12:52:15;9.85;;;1.52;;
47772;SDS011;33534;51.028;13.716;2024-01-15T12:54:43;7.00;;;1.73;;
47772;SDS011;33534;51.028;13.716;2024-01-15T12:57:09;4.75;;;1.27;;
47772;SDS011;33534;51.028;13.716;2024-01-15T12:59:35;9.43;;;1.95;;
47772;SDS011;33534;51.028;13.716;2024-01-15T13:02:00;3.13;;;1.55;;
47772;SDS011;33534;51.028;13.716;2024-01-15T13:04:26;7.07;;;1.75;;
47772;SDS011;33534;51.028;13.716;2024-01-15T13:06:52;4.78;;;1.63;;
47772;SDS011;33534;51.028;13.716;2024-01-15T13:09:18;6.05;;;1.45;;
47772;SDS011;33534;51.028;13.716;2024-01-15T13:11:44;11.30;;;2.15;;
47772;SDS011;33534;51.028;13.716;2024-01-15T13:14:10;4.07;;;1.15;;
47772;SDS011;33534;51.028;13.716;2024-01-15T13:16:36;5.32;;;1.42;;
47772;SDS011;33534;51.028;13.716;2024-01-15T13:19:02;6.82;;;1.45;;
47772;SDS011;33534;51.028;13.716;2024-01-15T13:21:29;6.38;;;1.27;;
47772;SDS011;33534;51.028;13.716;2024-01-15T13:23:55;3.05;;;1.10;;
47772;SDS011;33534;51.028;13.716;2024-01-15T13:26:20;5.88;;;1.10;;
47772;SDS011;33534;51.028;13.716;2024-01-15T13:28:46;4.60;;;1.23;;
47772;SDS011;33534;51.028;13.716;2024-01-15T13:31:12;4.00;;;1.10;;
47772;SDS011;33534;51.028;13.716;2024-01-15T13:33:38;4.30;;;0.85;;
47772;SDS011;33534;51.028;13.716;2024-01-15T13:36:04;3.95;;;0.73;;
47772;SDS011;33534;51.028;13.716;2024-01-15T13:38:34;8.38;;;1.30;;
47772;SDS011;33534;51.028;13.716;2024-01-15T13:41:02;4.30;;;1.10;;
47772;SDS011;33534;51.028;13.716;2024-01-15T13:43:28;4.38;;;1.17;;
47772;SDS011;33534;51.028;13.716;2024-01-15T13:45:53;3.50;;;0.90;;
47772;SDS011;33534;51.028;13.716;2024-01-15T13:48:19;1.45;;;1.00;;
47772;SDS011;33534;51.028;13.716;2024-01-15T13:50:45;1.85;;;0.90;;
47772;SDS011;33534;51.028;13.716;2024-01-15T13:53:11;3.70;;;0.90;;
47772;SDS011;33534;51.028;13.716;2024-01-15T13:55:36;1.77;;;0.85;;
47772;SDS011;33534;51.028;13.716;2024-01-15T13:58:02;6.63;;;0.98;;
47772;SDS011;33534;51.028;13.716;2024-01-15T14:00:30;1.70;;;1.00;;
47772;SDS011;33534;51.028;13.716;2024-01-15T14:02:57;2.08;;;0.60;;
47772;SDS011;33534;51.028;13.716;2024-01-15T14:05:23;1.77;;;0.60;;
47772;SDS011;33534;51.028;13.716;2024-01-15T14:07:49;3.47;;;0.70;;
47772;SDS011;33534;51.028;13.716;2024-01-15T14:10:14;1.10;;;0.60;;
47772;SDS011;33534;51.028;13.716;2024-01-15T14:12:40;6.72;;;1.08;;
47772;SDS011;33534;51.028;13.716;2024-01-15T14:15:06;3.08;;;1.13;;
47772;SDS011;33534;51.028;13.716;2024-01-15T14:17:32;4.25;;;1.10;;
47772;SDS011;33534;51.028;13.716;2024-01-15T14:19:58;3.40;;;1.00;;
47772;SDS011;33534;51.028;13.716;2024-01-15T14:22:23;2.53;;;0.98;;
47772;SDS011;33534;51.028;13.716;2024-01-15T14:24:49;3.30;;;1.25;;
47772;SDS011;33534;51.028;13.716;2024-01-15T14:27:16;3.45;;;1.60;;
47772;SDS011;33534;51.028;13.716;2024-01-15T14:29:41;2.67;;;0.75;;
47772;SDS011;33534;51.028;13.716;2024-01-15T14:32:07;1.38;;;0.93;;
47772;SDS011;33534;51.028;13.716;2024-01-15T14:34:33;3.25;;;0.90;;
47772;SDS011;33534;51.028;13.716;2024-01-15T14:37:01;3.65;;;0.88;;
47772;SDS011;33534;51.028;13.716;2024-01-15T14:39:26;3.08;;;0.70;;
47772;SDS011;33534;51.028;13.716;2024-01-15T14:41:52;5.90;;;1.42;;
47772;SDS011;33534;51.028;13.716;2024-01-15T14:44:17;3.53;;;0.70;;
47772;SDS011;33534;51.028;13.716;2024-01-15T14:46:43;4.90;;;1.17;;
47772;SDS011;33534;51.028;13.716;2024-01-15T14:49:09;3.40;;;0.70;;
47772;SDS011;33534;51.028;13.716;2024-01-15T14:51:34;1.63;;;0.80;;
47772;SDS011;33534;51.028;13.716;2024-01-15T14:54:03;1.35;;;0.77;;